sensor_id;sensor_type;location;lat;lon;timestamp;temperature;humidity
40289;DHT22;28991;52.028;5.526;2022-10-10T00:00:16;20.60;50.00
40289;DHT22;28991;52.028;5.526;2022-10-10T00:02:42;20.60;50.00
40289;DHT22;28991;52.028;5.526;2022-10-10T00:05:07;20.60;50.00
40289;DHT22;28991;52.028;5.526;2022-10-10T00:07:33;20.60;50.00
40289;DHT22;28991;52.028;5.526;2022-10-10T00:09:58;20.60;50.10
40289;DHT22;28991;52.028;5.526;2022-10-10T00:12:24;20.60;50.10
40289;DHT22;28991;52.028;5.526;2022-10-10T00:14:49;20.60;50.10
40289;DHT22;28991;52.028;5.526;2022-10-10T00:17:15;20.60;50.10
40289;DHT22;28991;52.028;5.526;2022-10-10T00:19:40;20.60;50.10
40289;DHT22;28991;52.028;5.526;2022-10-10T00:22:06;20.60;50.10
40289;DHT22;28991;52.028;5.526;2022-10-10T00:24:31;20.60;50.10
40289;DHT22;28991;52.028;5.526;2022-10-10T00:26:57;20.60;50.10
40289;DHT22;28991;52.028;5.526;2022-10-10T00:29:22;20.60;50.10
40289;DHT22;28991;52.028;5.526;2022-10-10T00:31:48;20.60;50.10
40289;DHT22;28991;52.028;5.526;2022-10-10T00:34:13;20.60;50.10
40289;DHT22;28991;52.028;5.526;2022-10-10T00:36:38;20.60;50.20
40289;DHT22;28991;52.028;5.526;2022-10-10T00:39:04;20.50;50.10
40289;DHT22;28991;52.028;5.526;2022-10-10T00:41:29;20.60;50.20
40289;DHT22;28991;52.028;5.526;2022-10-10T00:44:11;20.50;50.10
40289;DHT22;28991;52.028;5.526;2022-10-10T00:46:37;20.60;50.20
40289;DHT22;28991;52.028;5.526;2022-10-10T00:49:04;20.60;50.20
40289;DHT22;28991;52.028;5.526;2022-10-10T00:51:31;20.60;50.20
40289;DHT22;28991;52.028;5.526;2022-10-10T00:53:58;20.50;50.10
40289;DHT22;28991;52.028;5.526;2022-10-10T00:56:28;20.60;50.20
40289;DHT22;28991;52.028;5.526;2022-10-10T00:58:55;20.50;50.20
40289;DHT22;28991;52.028;5.526;2022-10-10T01:01:22;21.30;50.60
40289;DHT22;28991;52.028;5.526;2022-10-10T01:03:47;20.40;50.10
40289;DHT22;28991;52.028;5.526;2022-10-10T01:06:13;20.60;50.30
40289;DHT22;28991;52.028;5.526;2022-10-10T01:08:39;20.60;50.30
40289;DHT22;28991;52.028;5.526;2022-10-10T01:16:25;20.60;50.30
40289;DHT22;28991;52.028;5.526;2022-10-10T01:24:25;20.50;50.30
40289;DHT22;28991;52.028;5.526;2022-10-10T01:31:53;20.50;50.30
40289;DHT22;28991;52.028;5.526;2022-10-10T01:34:28;20.50;50.30
40289;DHT22;28991;52.028;5.526;2022-10-10T01:44:51;20.50;50.30
40289;DHT22;28991;52.028;5.526;2022-10-10T01:47:19;20.50;50.30
40289;DHT22;28991;52.028;5.526;2022-10-10T01:49:44;20.50;50.40
40289;DHT22;28991;52.028;5.526;2022-10-10T01:57:57;20.50;50.40
40289;DHT22;28991;52.028;5.526;2022-10-10T02:00:24;20.60;50.50
40289;DHT22;28991;52.028;5.526;2022-10-10T02:07:42;20.50;50.40
40289;DHT22;28991;52.028;5.526;2022-10-10T02:10:08;20.50;50.40
40289;DHT22;28991;52.028;5.526;2022-10-10T02:12:34;20.50;50.40
40289;DHT22;28991;52.028;5.526;2022-10-10T02:15:05;20.50;50.40
40289;DHT22;28991;52.028;5.526;2022-10-10T02:17:33;20.50;50.50
40289;DHT22;28991;52.028;5.526;2022-10-10T02:20:00;20.80;50.60
40289;DHT22;28991;52.028;5.526;2022-10-10T02:22:25;20.50;50.50
40289;DHT22;28991;52.028;5.526;2022-10-10T02:24:51;20.50;50.50
40289;DHT22;28991;52.028;5.526;2022-10-10T02:27:20;20.50;50.50
40289;DHT22;28991;52.028;5.526;2022-10-10T02:29:50;20.70;50.60
40289;DHT22;28991;52.028;5.526;2022-10-10T02:32:19;20.50;50.50
40289;DHT22;28991;52.028;5.526;2022-10-10T02:34:47;20.50;50.50
40289;DHT22;28991;52.028;5.526;2022-10-10T02:37:14;20.40;50.50
40289;DHT22;28991;52.028;5.526;2022-10-10T02:39:44;20.50;50.50
40289;DHT22;28991;52.028;5.526;2022-10-10T02:42:11;20.50;50.50
40289;DHT22;28991;52.028;5.526;2022-10-10T02:44:38;20.50;50.50
40289;DHT22;28991;52.028;5.526;2022-10-10T02:47:04;20.90;50.80
40289;DHT22;28991;52.028;5.526;2022-10-10T02:49:31;20.50;50.60
40289;DHT22;28991;52.028;5.526;2022-10-10T02:51:56;20.60;50.70
40289;DHT22;28991;52.028;5.526;2022-10-10T02:54:22;20.90;50.80
40289;DHT22;28991;52.028;5.526;2022-10-10T02:56:47;20.50;50.60
40289;DHT22;28991;52.028;5.526;2022-10-10T02:59:13;20.50;50.60
40289;DHT22;28991;52.028;5.526;2022-10-10T03:01:38;20.50;50.60
40289;DHT22;28991;52.028;5.526;2022-10-10T03:04:04;20.50;50.60
40289;DHT22;28991;52.028;5.526;2022-10-10T03:06:29;20.50;50.60
40289;DHT22;28991;52.028;5.526;2022-10-10T03:08:55;20.50;50.60
40289;DHT22;28991;52.028;5.526;2022-10-10T03:11:20;20.70;50.70
40289;DHT22;28991;52.028;5.526;2022-10-10T03:13:46;20.50;50.60
40289;DHT22;28991;52.028;5.526;2022-10-10T03:16:11;20.40;50.60
40289;DHT22;28991;52.028;5.526;2022-10-10T03:18:37;21.00;50.90
40289;DHT22;28991;52.028;5.526;2022-10-10T03:21:02;20.50;50.70
40289;DHT22;28991;52.028;5.526;2022-10-10T03:23:28;20.50;50.60
40289;DHT22;28991;52.028;5.526;2022-10-10T03:25:53;20.40;50.60
40289;DHT22;28991;52.028;5.526;2022-10-10T03:28:19;20.50;50.60
40289;DHT22;28991;52.028;5.526;2022-10-10T03:30:45;20.50;50.60
40289;DHT22;28991;52.028;5.526;2022-10-10T03:33:10;20.40;50.60
40289;DHT22;28991;52.028;5.526;2022-10-10T03:35:36;20.50;50.70
40289;DHT22;28991;52.028;5.526;2022-10-10T03:38:02;20.50;50.70
40289;DHT22;28991;52.028;5.526;2022-10-10T03:40:27;20.50;50.70
40289;DHT22;28991;52.028;5.526;2022-10-10T03:42:53;20.50;50.70
40289;DHT22;28991;52.028;5.526;2022-10-10T03:45:18;20.40;50.60
40289;DHT22;28991;52.028;5.526;2022-10-10T03:47:44;20.50;50.70
40289;DHT22;28991;52.028;5.526;2022-10-10T03:50:09;20.50;50.70
40289;DHT22;28991;52.028;5.526;2022-10-10T03:52:35;20.40;50.70
40289;DHT22;28991;52.028;5.526;2022-10-10T03:55:00;20.90;50.90
40289;DHT22;28991;52.028;5.526;2022-10-10T03:57:26;20.40;50.70
40289;DHT22;28991;52.028;5.526;2022-10-10T03:59:51;20.40;50.70
40289;DHT22;28991;52.028;5.526;2022-10-10T04:02:17;20.50;50.70
40289;DHT22;28991;52.028;5.526;2022-10-10T04:04:42;20.40;50.70
40289;DHT22;28991;52.028;5.526;2022-10-10T04:07:08;20.40;50.70
40289;DHT22;28991;52.028;5.526;2022-10-10T04:09:33;20.50;50.80
40289;DHT22;28991;52.028;5.526;2022-10-10T04:11:59;20.40;50.70
40289;DHT22;28991;52.028;5.526;2022-10-10T04:14:24;20.40;50.70
40289;DHT22;28991;52.028;5.526;2022-10-10T04:16:50;20.40;50.70
40289;DHT22;28991;52.028;5.526;2022-10-10T04:19:15;20.40;50.70
40289;DHT22;28991;52.028;5.526;2022-10-10T04:21:40;20.70;50.90
40289;DHT22;28991;52.028;5.526;2022-10-10T04:24:06;20.40;50.70
40289;DHT22;28991;52.028;5.526;2022-10-10T04:26:31;20.40;50.80
40289;DHT22;28991;52.028;5.526;2022-10-10T04:28:57;20.40;50.80
40289;DHT22;28991;52.028;5.526;2022-10-10T04:31:23;20.40;50.80
40289;DHT22;28991;52.028;5.526;2022-10-10T04:33:48;20.40;50.80
40289;DHT22;28991;52.028;5.526;2022-10-10T04:36:14;20.30;50.70
40289;DHT22;28991;52.028;5.526;2022-10-10T04:38:40;20.40;50.80
40289;DHT22;28991;52.028;5.526;2022-10-10T04:41:05;20.40;50.80
40289;DHT22;28991;52.028;5.526;2022-10-10T04:43:30;20.50;50.80
40289;DHT22;28991;52.028;5.526;2022-10-10T04:45:56;20.40;50.80
40289;DHT22;28991;52.028;5.526;2022-10-10T04:48:22;20.40;50.80
40289;DHT22;28991;52.028;5.526;2022-10-10T04:50:51;20.40;50.80
40289;DHT22;28991;52.028;5.526;2022-10-10T04:53:17;20.40;50.80
40289;DHT22;28991;52.028;5.526;2022-10-10T04:55:42;20.40;50.80
40289;DHT22;28991;52.028;5.526;2022-10-10T04:58:08;20.10;50.80
40289;DHT22;28991;52.028;5.526;2022-10-10T05:00:33;20.30;51.00
40289;DHT22;28991;52.028;5.526;2022-10-10T05:02:59;20.40;51.00
40289;DHT22;28991;52.028;5.526;2022-10-10T05:05:24;20.40;51.10
40289;DHT22;28991;52.028;5.526;2022-10-10T05:07:50;20.40;51.20
40289;DHT22;28991;52.028;5.526;2022-10-10T05:10:15;20.40;50.30
40289;DHT22;28991;52.028;5.526;2022-10-10T05:12:41;20.50;50.00
40289;DHT22;28991;52.028;5.526;2022-10-10T05:15:06;20.50;49.80
40289;DHT22;28991;52.028;5.526;2022-10-10T05:17:32;20.50;49.50
40289;DHT22;28991;52.028;5.526;2022-10-10T05:19:57;20.60;49.20
40289;DHT22;28991;52.028;5.526;2022-10-10T05:22:23;20.60;49.00
40289;DHT22;28991;52.028;5.526;2022-10-10T05:24:48;20.70;48.40
40289;DHT22;28991;52.028;5.526;2022-10-10T05:27:14;21.50;48.00
40289;DHT22;28991;52.028;5.526;2022-10-10T05:29:39;21.20;47.40
40289;DHT22;28991;52.028;5.526;2022-10-10T05:32:05;20.80;47.30
40289;DHT22;28991;52.028;5.526;2022-10-10T05:34:30;20.90;47.70
40289;DHT22;28991;52.028;5.526;2022-10-10T05:36:56;20.90;47.10
40289;DHT22;28991;52.028;5.526;2022-10-10T05:39:22;20.90;47.20
40289;DHT22;28991;52.028;5.526;2022-10-10T05:41:49;20.90;46.80
40289;DHT22;28991;52.028;5.526;2022-10-10T05:44:15;21.00;46.60
40289;DHT22;28991;52.028;5.526;2022-10-10T05:46:40;21.00;46.40
40289;DHT22;28991;52.028;5.526;2022-10-10T05:49:06;21.00;45.80
40289;DHT22;28991;52.028;5.526;2022-10-10T05:51:31;21.00;45.90
40289;DHT22;28991;52.028;5.526;2022-10-10T05:53:57;21.10;45.30
40289;DHT22;28991;52.028;5.526;2022-10-10T05:56:22;21.20;45.20
40289;DHT22;28991;52.028;5.526;2022-10-10T05:58:48;21.10;45.40
40289;DHT22;28991;52.028;5.526;2022-10-10T06:01:15;21.20;44.90
40289;DHT22;28991;52.028;5.526;2022-10-10T06:03:41;20.50;44.20
40289;DHT22;28991;52.028;5.526;2022-10-10T06:06:06;21.30;45.80
40289;DHT22;28991;52.028;5.526;2022-10-10T06:08:32;21.20;46.50
40289;DHT22;28991;52.028;5.526;2022-10-10T06:11:04;21.20;46.50
40289;DHT22;28991;52.028;5.526;2022-10-10T06:13:30;21.20;46.30
40289;DHT22;28991;52.028;5.526;2022-10-10T06:15:56;21.10;46.50
40289;DHT22;28991;52.028;5.526;2022-10-10T06:18:22;21.20;46.60
40289;DHT22;28991;52.028;5.526;2022-10-10T06:20:47;21.30;46.50
40289;DHT22;28991;52.028;5.526;2022-10-10T06:23:13;21.30;46.50
40289;DHT22;28991;52.028;5.526;2022-10-10T06:25:38;21.30;46.60
40289;DHT22;28991;52.028;5.526;2022-10-10T06:28:04;21.30;46.50
40289;DHT22;28991;52.028;5.526;2022-10-10T06:30:30;21.30;46.30
40289;DHT22;28991;52.028;5.526;2022-10-10T06:32:55;21.30;46.00
40289;DHT22;28991;52.028;5.526;2022-10-10T06:35:23;21.30;45.90
40289;DHT22;28991;52.028;5.526;2022-10-10T06:37:48;21.40;46.20
40289;DHT22;28991;52.028;5.526;2022-10-10T06:40:14;21.40;46.10
40289;DHT22;28991;52.028;5.526;2022-10-10T06:42:39;21.40;46.00
40289;DHT22;28991;52.028;5.526;2022-10-10T06:45:05;21.50;46.00
40289;DHT22;28991;52.028;5.526;2022-10-10T06:47:31;21.50;45.70
40289;DHT22;28991;52.028;5.526;2022-10-10T06:49:56;21.50;45.90
40289;DHT22;28991;52.028;5.526;2022-10-10T06:52:22;21.50;45.80
40289;DHT22;28991;52.028;5.526;2022-10-10T06:54:48;21.50;44.70
40289;DHT22;28991;52.028;5.526;2022-10-10T06:57:13;22.50;45.30
40289;DHT22;28991;52.028;5.526;2022-10-10T06:59:39;21.60;45.10
40289;DHT22;28991;52.028;5.526;2022-10-10T07:02:04;22.10;45.40
40289;DHT22;28991;52.028;5.526;2022-10-10T07:04:29;22.00;45.70
40289;DHT22;28991;52.028;5.526;2022-10-10T07:06:55;21.60;45.90
40289;DHT22;28991;52.028;5.526;2022-10-10T07:09:20;21.60;46.10
40289;DHT22;28991;52.028;5.526;2022-10-10T07:11:46;21.50;45.90
40289;DHT22;28991;52.028;5.526;2022-10-10T07:14:11;22.30;46.10
40289;DHT22;28991;52.028;5.526;2022-10-10T07:16:37;21.70;46.10
40289;DHT22;28991;52.028;5.526;2022-10-10T07:19:03;21.70;46.10
40289;DHT22;28991;52.028;5.526;2022-10-10T07:21:29;21.70;46.20
40289;DHT22;28991;52.028;5.526;2022-10-10T07:23:54;21.80;46.20
40289;DHT22;28991;52.028;5.526;2022-10-10T07:26:20;21.80;46.10
40289;DHT22;28991;52.028;5.526;2022-10-10T07:28:47;21.80;45.90
40289;DHT22;28991;52.028;5.526;2022-10-10T07:31:12;21.80;45.90
40289;DHT22;28991;52.028;5.526;2022-10-10T07:33:39;21.90;46.10
40289;DHT22;28991;52.028;5.526;2022-10-10T07:36:05;20.50;45.20
40289;DHT22;28991;52.028;5.526;2022-10-10T07:38:31;21.90;45.90
40289;DHT22;28991;52.028;5.526;2022-10-10T07:40:56;21.90;45.80
40289;DHT22;28991;52.028;5.526;2022-10-10T07:43:22;22.00;45.90
40289;DHT22;28991;52.028;5.526;2022-10-10T07:45:47;22.00;45.90
40289;DHT22;28991;52.028;5.526;2022-10-10T07:48:13;21.70;46.00
40289;DHT22;28991;52.028;5.526;2022-10-10T07:50:39;22.00;46.30
40289;DHT22;28991;52.028;5.526;2022-10-10T07:53:06;22.00;46.40
40289;DHT22;28991;52.028;5.526;2022-10-10T07:55:32;22.00;46.40
40289;DHT22;28991;52.028;5.526;2022-10-10T07:57:58;22.10;46.40
40289;DHT22;28991;52.028;5.526;2022-10-10T08:00:23;22.10;46.50
40289;DHT22;28991;52.028;5.526;2022-10-10T08:02:49;22.10;46.50
40289;DHT22;28991;52.028;5.526;2022-10-10T08:05:16;22.10;46.40
40289;DHT22;28991;52.028;5.526;2022-10-10T08:07:41;22.10;46.50
40289;DHT22;28991;52.028;5.526;2022-10-10T08:10:07;22.10;46.50
40289;DHT22;28991;52.028;5.526;2022-10-10T08:12:34;22.10;47.00
40289;DHT22;28991;52.028;5.526;2022-10-10T08:15:00;22.10;46.50
40289;DHT22;28991;52.028;5.526;2022-10-10T08:17:25;22.10;46.50
40289;DHT22;28991;52.028;5.526;2022-10-10T08:19:51;22.10;46.40
40289;DHT22;28991;52.028;5.526;2022-10-10T08:22:16;22.10;46.40
40289;DHT22;28991;52.028;5.526;2022-10-10T08:24:42;22.10;46.40
40289;DHT22;28991;52.028;5.526;2022-10-10T08:27:07;22.20;46.30
40289;DHT22;28991;52.028;5.526;2022-10-10T08:29:33;22.10;46.30
40289;DHT22;28991;52.028;5.526;2022-10-10T08:31:58;22.20;46.20
40289;DHT22;28991;52.028;5.526;2022-10-10T08:34:24;22.10;46.40
40289;DHT22;28991;52.028;5.526;2022-10-10T08:36:49;22.10;46.50
40289;DHT22;28991;52.028;5.526;2022-10-10T08:39:15;22.20;46.60
40289;DHT22;28991;52.028;5.526;2022-10-10T08:42:42;22.10;46.70
40289;DHT22;28991;52.028;5.526;2022-10-10T08:44:40;22.20;46.90
40289;DHT22;28991;52.028;5.526;2022-10-10T08:52:04;22.10;47.60
40289;DHT22;28991;52.028;5.526;2022-10-10T08:54:31;22.10;47.90
40289;DHT22;28991;52.028;5.526;2022-10-10T08:56:58;22.20;47.90
40289;DHT22;28991;52.028;5.526;2022-10-10T08:59:26;22.20;47.90
40289;DHT22;28991;52.028;5.526;2022-10-10T09:01:54;22.20;48.00
40289;DHT22;28991;52.028;5.526;2022-10-10T09:04:22;22.20;47.80
40289;DHT22;28991;52.028;5.526;2022-10-10T09:09:50;22.20;47.90
40289;DHT22;28991;52.028;5.526;2022-10-10T09:15:08;22.30;48.00
40289;DHT22;28991;52.028;5.526;2022-10-10T09:17:58;22.30;48.10
40289;DHT22;28991;52.028;5.526;2022-10-10T09:25:25;22.30;48.10
40289;DHT22;28991;52.028;5.526;2022-10-10T09:30:29;22.30;48.30
40289;DHT22;28991;52.028;5.526;2022-10-10T09:33:10;22.40;48.40
40289;DHT22;28991;52.028;5.526;2022-10-10T09:35:42;22.40;48.40
40289;DHT22;28991;52.028;5.526;2022-10-10T09:40:55;22.40;48.70
40289;DHT22;28991;52.028;5.526;2022-10-10T09:43:22;22.40;48.60
40289;DHT22;28991;52.028;5.526;2022-10-10T09:45:52;21.20;48.00
40289;DHT22;28991;52.028;5.526;2022-10-10T09:48:18;22.30;48.70
40289;DHT22;28991;52.028;5.526;2022-10-10T09:50:44;22.40;48.70
40289;DHT22;28991;52.028;5.526;2022-10-10T09:53:11;22.40;48.70
40289;DHT22;28991;52.028;5.526;2022-10-10T09:55:38;22.30;48.50
40289;DHT22;28991;52.028;5.526;2022-10-10T10:00:45;22.40;48.60
40289;DHT22;28991;52.028;5.526;2022-10-10T10:03:12;22.30;48.50
40289;DHT22;28991;52.028;5.526;2022-10-10T10:05:39;22.30;48.60
40289;DHT22;28991;52.028;5.526;2022-10-10T10:08:15;22.30;48.70
40289;DHT22;28991;52.028;5.526;2022-10-10T10:10:42;22.30;48.80
40289;DHT22;28991;52.028;5.526;2022-10-10T10:13:11;22.20;48.80
40289;DHT22;28991;52.028;5.526;2022-10-10T10:15:37;22.10;48.90
40289;DHT22;28991;52.028;5.526;2022-10-10T10:20:42;22.10;49.00
40289;DHT22;28991;52.028;5.526;2022-10-10T10:23:21;22.20;49.10
40289;DHT22;28991;52.028;5.526;2022-10-10T10:25:49;22.10;49.20
40289;DHT22;28991;52.028;5.526;2022-10-10T10:28:20;22.40;49.40
40289;DHT22;28991;52.028;5.526;2022-10-10T10:30:46;22.20;49.70
40289;DHT22;28991;52.028;5.526;2022-10-10T10:43:34;22.30;49.60
40289;DHT22;28991;52.028;5.526;2022-10-10T10:48:36;22.30;49.70
40289;DHT22;28991;52.028;5.526;2022-10-10T10:51:07;22.40;49.70
40289;DHT22;28991;52.028;5.526;2022-10-10T10:53:56;22.40;49.70
40289;DHT22;28991;52.028;5.526;2022-10-10T11:01:48;22.30;49.70
40289;DHT22;28991;52.028;5.526;2022-10-10T11:12:11;22.30;50.10
40289;DHT22;28991;52.028;5.526;2022-10-10T11:17:11;22.20;50.30
40289;DHT22;28991;52.028;5.526;2022-10-10T11:19:40;22.30;50.60
40289;DHT22;28991;52.028;5.526;2022-10-10T11:22:08;22.20;50.70
40289;DHT22;28991;52.028;5.526;2022-10-10T11:24:38;22.50;51.10
40289;DHT22;28991;52.028;5.526;2022-10-10T11:27:08;22.20;50.80
40289;DHT22;28991;52.028;5.526;2022-10-10T11:29:44;22.20;51.10
40289;DHT22;28991;52.028;5.526;2022-10-10T11:32:12;22.20;51.70
40289;DHT22;28991;52.028;5.526;2022-10-10T11:34:44;22.20;51.70
40289;DHT22;28991;52.028;5.526;2022-10-10T11:37:15;22.10;51.60
40289;DHT22;28991;52.028;5.526;2022-10-10T11:39:49;22.20;51.80
40289;DHT22;28991;52.028;5.526;2022-10-10T11:42:21;22.10;51.70
40289;DHT22;28991;52.028;5.526;2022-10-10T11:44:54;22.20;52.00
40289;DHT22;28991;52.028;5.526;2022-10-10T11:47:27;22.10;52.10
40289;DHT22;28991;52.028;5.526;2022-10-10T11:49:56;22.10;52.40
40289;DHT22;28991;52.028;5.526;2022-10-10T11:57:20;22.10;52.50
40289;DHT22;28991;52.028;5.526;2022-10-10T11:59:48;22.10;52.70
40289;DHT22;28991;52.028;5.526;2022-10-10T12:02:22;22.00;52.60
40289;DHT22;28991;52.028;5.526;2022-10-10T12:04:49;22.00;52.80
40289;DHT22;28991;52.028;5.526;2022-10-10T12:07:18;22.10;52.70
40289;DHT22;28991;52.028;5.526;2022-10-10T12:09:46;22.00;52.70
40289;DHT22;28991;52.028;5.526;2022-10-10T12:12:17;20.60;51.90
40289;DHT22;28991;52.028;5.526;2022-10-10T12:14:44;22.00;52.90
40289;DHT22;28991;52.028;5.526;2022-10-10T12:17:28;22.00;53.20
40289;DHT22;28991;52.028;5.526;2022-10-10T12:20:09;22.00;53.50
40289;DHT22;28991;52.028;5.526;2022-10-10T12:22:35;22.00;53.80
40289;DHT22;28991;52.028;5.526;2022-10-10T12:30:30;22.00;53.90
40289;DHT22;28991;52.028;5.526;2022-10-10T12:32:55;22.50;54.40
40289;DHT22;28991;52.028;5.526;2022-10-10T12:35:38;22.00;54.10
40289;DHT22;28991;52.028;5.526;2022-10-10T12:40:30;22.20;54.40
40289;DHT22;28991;52.028;5.526;2022-10-10T12:47:53;22.00;54.50
40289;DHT22;28991;52.028;5.526;2022-10-10T12:50:35;22.00;54.30
40289;DHT22;28991;52.028;5.526;2022-10-10T12:53:02;22.00;54.20
40289;DHT22;28991;52.028;5.526;2022-10-10T12:55:39;22.00;54.00
40289;DHT22;28991;52.028;5.526;2022-10-10T12:58:08;22.00;54.60
40289;DHT22;28991;52.028;5.526;2022-10-10T13:00:38;22.00;54.50
40289;DHT22;28991;52.028;5.526;2022-10-10T13:03:09;22.50;55.90
40289;DHT22;28991;52.028;5.526;2022-10-10T13:05:36;22.00;55.50
40289;DHT22;28991;52.028;5.526;2022-10-10T13:08:04;22.00;55.50
40289;DHT22;28991;52.028;5.526;2022-10-10T13:10:31;22.00;55.60
40289;DHT22;28991;52.028;5.526;2022-10-10T13:13:01;22.00;56.30
40289;DHT22;28991;52.028;5.526;2022-10-10T13:15:27;22.10;56.30
40289;DHT22;28991;52.028;5.526;2022-10-10T13:17:53;22.00;55.40
40289;DHT22;28991;52.028;5.526;2022-10-10T13:20:25;22.10;55.80
40289;DHT22;28991;52.028;5.526;2022-10-10T13:22:50;22.10;55.60
40289;DHT22;28991;52.028;5.526;2022-10-10T13:25:16;22.10;55.70
40289;DHT22;28991;52.028;5.526;2022-10-10T13:27:41;22.10;55.90
40289;DHT22;28991;52.028;5.526;2022-10-10T13:30:14;22.70;56.00
40289;DHT22;28991;52.028;5.526;2022-10-10T13:32:42;22.10;55.50
40289;DHT22;28991;52.028;5.526;2022-10-10T13:35:41;22.30;56.10
40289;DHT22;28991;52.028;5.526;2022-10-10T13:38:00;22.10;56.00
40289;DHT22;28991;52.028;5.526;2022-10-10T13:40:25;22.10;55.70
40289;DHT22;28991;52.028;5.526;2022-10-10T13:42:52;22.10;55.70
40289;DHT22;28991;52.028;5.526;2022-10-10T13:50:19;22.10;56.80
40289;DHT22;28991;52.028;5.526;2022-10-10T13:52:45;22.10;56.30
40289;DHT22;28991;52.028;5.526;2022-10-10T13:55:22;22.10;56.30
40289;DHT22;28991;52.028;5.526;2022-10-10T13:57:48;22.10;56.00
40289;DHT22;28991;52.028;5.526;2022-10-10T14:00:17;22.10;56.50
40289;DHT22;28991;52.028;5.526;2022-10-10T14:02:43;22.10;56.00
40289;DHT22;28991;52.028;5.526;2022-10-10T14:05:14;22.00;56.00
40289;DHT22;28991;52.028;5.526;2022-10-10T14:07:44;22.10;55.90
40289;DHT22;28991;52.028;5.526;2022-10-10T14:10:12;22.10;56.30
40289;DHT22;28991;52.028;5.526;2022-10-10T14:12:40;22.30;56.50
40289;DHT22;28991;52.028;5.526;2022-10-10T14:17:50;22.10;56.30
40289;DHT22;28991;52.028;5.526;2022-10-10T14:20:16;22.10;56.30
40289;DHT22;28991;52.028;5.526;2022-10-10T14:22:41;22.10;56.30
40289;DHT22;28991;52.028;5.526;2022-10-10T14:25:07;22.10;56.30
40289;DHT22;28991;52.028;5.526;2022-10-10T14:27:32;22.10;56.00
40289;DHT22;28991;52.028;5.526;2022-10-10T14:29:58;22.10;55.60
40289;DHT22;28991;52.028;5.526;2022-10-10T14:32:23;22.10;55.60
40289;DHT22;28991;52.028;5.526;2022-10-10T14:34:49;22.10;55.80
40289;DHT22;28991;52.028;5.526;2022-10-10T14:37:16;22.10;56.20
40289;DHT22;28991;52.028;5.526;2022-10-10T14:39:41;22.10;55.50
40289;DHT22;28991;52.028;5.526;2022-10-10T14:42:10;22.10;55.30
40289;DHT22;28991;52.028;5.526;2022-10-10T14:44:36;22.10;55.20
40289;DHT22;28991;52.028;5.526;2022-10-10T14:47:01;22.10;55.20
40289;DHT22;28991;52.028;5.526;2022-10-10T14:49:27;22.10;55.20
40289;DHT22;28991;52.028;5.526;2022-10-10T14:51:52;22.00;55.10
40289;DHT22;28991;52.028;5.526;2022-10-10T14:54:18;22.00;55.10
40289;DHT22;28991;52.028;5.526;2022-10-10T14:56:43;22.00;55.20
40289;DHT22;28991;52.028;5.526;2022-10-10T14:59:18;22.00;55.20
40289;DHT22;28991;52.028;5.526;2022-10-10T15:01:45;22.00;55.20
40289;DHT22;28991;52.028;5.526;2022-10-10T15:04:11;21.90;55.20
40289;DHT22;28991;52.028;5.526;2022-10-10T15:06:36;22.00;55.20
40289;DHT22;28991;52.028;5.526;2022-10-10T15:09:02;21.90;55.30
40289;DHT22;28991;52.028;5.526;2022-10-10T15:11:27;21.80;55.20
40289;DHT22;28991;52.028;5.526;2022-10-10T15:13:53;21.80;55.20
40289;DHT22;28991;52.028;5.526;2022-10-10T15:16:18;21.90;55.30
40289;DHT22;28991;52.028;5.526;2022-10-10T15:18:43;21.80;55.40
40289;DHT22;28991;52.028;5.526;2022-10-10T15:21:09;22.40;55.70
40289;DHT22;28991;52.028;5.526;2022-10-10T15:23:35;21.80;55.40
40289;DHT22;28991;52.028;5.526;2022-10-10T15:26:00;21.90;55.50
40289;DHT22;28991;52.028;5.526;2022-10-10T15:28:26;21.80;55.30
40289;DHT22;28991;52.028;5.526;2022-10-10T15:30:51;21.80;55.30
40289;DHT22;28991;52.028;5.526;2022-10-10T15:33:18;21.80;55.40
40289;DHT22;28991;52.028;5.526;2022-10-10T15:35:43;21.80;55.40
40289;DHT22;28991;52.028;5.526;2022-10-10T15:38:09;21.70;55.40
40289;DHT22;28991;52.028;5.526;2022-10-10T15:40:34;21.80;55.50
40289;DHT22;28991;52.028;5.526;2022-10-10T15:43:00;21.70;55.40
40289;DHT22;28991;52.028;5.526;2022-10-10T15:45:25;21.70;55.40
40289;DHT22;28991;52.028;5.526;2022-10-10T15:47:51;21.70;55.40
40289;DHT22;28991;52.028;5.526;2022-10-10T15:50:16;21.70;55.40
40289;DHT22;28991;52.028;5.526;2022-10-10T15:52:42;21.70;55.40
40289;DHT22;28991;52.028;5.526;2022-10-10T15:55:07;22.10;55.70
40289;DHT22;28991;52.028;5.526;2022-10-10T15:57:33;21.70;55.50
40289;DHT22;28991;52.028;5.526;2022-10-10T15:59:59;21.70;55.50
40289;DHT22;28991;52.028;5.526;2022-10-10T16:02:24;21.60;55.40
40289;DHT22;28991;52.028;5.526;2022-10-10T16:04:50;21.60;55.40
40289;DHT22;28991;52.028;5.526;2022-10-10T16:07:15;22.60;56.00
40289;DHT22;28991;52.028;5.526;2022-10-10T16:09:41;21.60;55.40
40289;DHT22;28991;52.028;5.526;2022-10-10T16:12:07;21.50;55.40
40289;DHT22;28991;52.028;5.526;2022-10-10T16:14:32;21.60;55.50
40289;DHT22;28991;52.028;5.526;2022-10-10T16:16:58;22.10;55.80
40289;DHT22;28991;52.028;5.526;2022-10-10T16:19:23;21.60;55.50
40289;DHT22;28991;52.028;5.526;2022-10-10T16:21:49;21.60;55.50
40289;DHT22;28991;52.028;5.526;2022-10-10T16:24:14;21.60;55.60
40289;DHT22;28991;52.028;5.526;2022-10-10T16:26:40;21.50;55.80
40289;DHT22;28991;52.028;5.526;2022-10-10T16:29:06;21.60;55.90
40289;DHT22;28991;52.028;5.526;2022-10-10T16:31:33;21.60;55.80
40289;DHT22;28991;52.028;5.526;2022-10-10T16:34:03;21.60;55.60
40289;DHT22;28991;52.028;5.526;2022-10-10T16:36:30;21.40;55.50
40289;DHT22;28991;52.028;5.526;2022-10-10T16:38:56;21.60;55.60
40289;DHT22;28991;52.028;5.526;2022-10-10T16:41:26;21.50;55.60
40289;DHT22;28991;52.028;5.526;2022-10-10T16:43:52;21.50;55.70
40289;DHT22;28991;52.028;5.526;2022-10-10T16:46:19;21.90;55.90
40289;DHT22;28991;52.028;5.526;2022-10-10T16:48:45;21.80;55.90
40289;DHT22;28991;52.028;5.526;2022-10-10T16:51:12;21.50;55.80
40289;DHT22;28991;52.028;5.526;2022-10-10T16:53:38;21.50;55.80
40289;DHT22;28991;52.028;5.526;2022-10-10T16:56:04;21.50;55.90
40289;DHT22;28991;52.028;5.526;2022-10-10T16:58:30;21.40;55.90
40289;DHT22;28991;52.028;5.526;2022-10-10T17:00:56;21.40;55.90
40289;DHT22;28991;52.028;5.526;2022-10-10T17:03:22;21.80;56.80
40289;DHT22;28991;52.028;5.526;2022-10-10T17:05:49;21.40;56.00
40289;DHT22;28991;52.028;5.526;2022-10-10T17:08:24;21.40;56.00
40289;DHT22;28991;52.028;5.526;2022-10-10T17:10:49;21.50;56.10
40289;DHT22;28991;52.028;5.526;2022-10-10T17:13:15;21.40;56.10
40289;DHT22;28991;52.028;5.526;2022-10-10T17:15:40;21.40;56.10
40289;DHT22;28991;52.028;5.526;2022-10-10T17:18:06;21.40;56.20
40289;DHT22;28991;52.028;5.526;2022-10-10T17:20:31;21.90;56.50
40289;DHT22;28991;52.028;5.526;2022-10-10T17:22:58;21.40;56.20